TAF KMFR
KMFR 090555Z 0906/1006 32005KT P6SM SCT020 OVC030 FM091200 VRB03KT P6SM SCT008 BKN015 FM091800 32004KT P6SM OVC007 FM092100 31004KT P6SM OVC035=
METAR KMFR
WC KMFR
WS KMFR
WV KMFR